createdAt,value
2019-05-21T00:00:09.015Z,14.20
2019-05-21T00:02:37.682Z,14.20
2019-05-21T00:05:07.076Z,14.30
2019-05-21T00:07:35.759Z,14.20
2019-05-21T00:10:08.874Z,14.20
2019-05-21T00:12:37.483Z,14.20
2019-05-21T00:15:06.750Z,14.20
2019-05-21T00:17:35.365Z,14.20
2019-05-21T00:20:06.234Z,14.10
2019-05-21T00:22:35.101Z,14.10
2019-05-21T00:25:05.749Z,14.00
2019-05-21T00:27:34.414Z,14.00
2019-05-21T00:30:57.959Z,13.90
2019-05-21T00:34:21.321Z,13.90
2019-05-21T00:37:44.764Z,13.90
2019-05-21T00:41:08.271Z,13.90
2019-05-21T00:43:50.706Z,13.90
2019-05-21T00:46:19.364Z,13.80
2019-05-21T00:48:48.026Z,13.80
2019-05-21T00:51:16.809Z,13.80
2019-05-21T00:53:45.453Z,13.70
2019-05-21T00:56:14.136Z,13.60
2019-05-21T00:58:42.807Z,13.70
2019-05-21T01:01:18.739Z,13.70
2019-05-21T01:03:47.407Z,13.60
2019-05-21T01:06:16.068Z,13.60
2019-05-21T01:08:44.680Z,13.50
2019-05-21T01:11:13.341Z,13.50
2019-05-21T01:13:42.007Z,13.50
2019-05-21T01:16:10.666Z,13.50
2019-05-21T01:18:39.280Z,13.40
2019-05-21T01:21:07.963Z,13.40
2019-05-21T01:23:36.654Z,13.30
2019-05-21T01:26:05.332Z,13.30
2019-05-21T01:28:34.066Z,13.30
2019-05-21T01:31:02.726Z,13.20
2019-05-21T01:33:31.380Z,13.30
2019-05-21T01:35:59.990Z,13.20
2019-05-21T01:38:28.723Z,13.20
2019-05-21T01:40:57.483Z,13.20
2019-05-21T01:43:26.240Z,13.20
2019-05-21T01:45:54.856Z,13.10
2019-05-21T01:48:23.513Z,13.10
2019-05-21T01:50:52.126Z,13.10
2019-05-21T01:53:20.789Z,13.00
2019-05-21T01:55:49.400Z,13.00
2019-05-21T01:58:18.134Z,13.00
2019-05-21T02:00:46.913Z,12.90
2019-05-21T02:03:15.570Z,12.90
2019-05-21T02:05:44.201Z,12.90
2019-05-21T02:08:12.997Z,12.90
2019-05-21T02:10:41.661Z,12.80
2019-05-21T02:13:10.268Z,12.80
2019-05-21T02:15:39.064Z,12.80
2019-05-21T02:18:07.741Z,12.80
2019-05-21T02:20:36.398Z,12.80
2019-05-21T02:23:05.011Z,12.70
2019-05-21T02:25:33.672Z,12.70
2019-05-21T02:28:02.276Z,12.70
2019-05-21T02:30:31.006Z,12.60
2019-05-21T02:32:59.620Z,12.60
2019-05-21T02:35:28.278Z,12.60
2019-05-21T02:37:56.888Z,12.60
2019-05-21T02:40:25.624Z,12.50
2019-05-21T02:42:54.228Z,12.60
2019-05-21T02:45:23.042Z,12.60
2019-05-21T02:47:51.714Z,12.50
2019-05-21T02:50:20.461Z,12.50
2019-05-21T02:52:49.075Z,12.50
2019-05-21T02:55:19.179Z,12.40
2019-05-21T02:57:47.839Z,12.40
2019-05-21T03:00:17.958Z,12.40
2019-05-21T03:02:46.612Z,12.40
2019-05-21T03:05:15.219Z,12.40
2019-05-21T03:07:43.884Z,12.50
2019-05-21T03:10:12.879Z,12.40
2019-05-21T03:12:41.573Z,12.40
2019-05-21T03:15:10.470Z,12.50
2019-05-21T03:17:39.077Z,12.50
2019-05-21T03:20:08.447Z,12.50
2019-05-21T03:22:37.111Z,12.50
2019-05-21T03:25:07.478Z,12.50
2019-05-21T03:27:36.089Z,12.50
2019-05-21T03:30:07.729Z,12.40
2019-05-21T03:32:36.456Z,12.50
2019-05-21T03:35:07.587Z,12.50
2019-05-21T03:37:36.251Z,12.50
2019-05-21T03:40:09.146Z,12.50
2019-05-21T03:42:37.803Z,12.50
2019-05-21T03:45:08.076Z,12.50
2019-05-21T03:47:37.244Z,12.50
2019-05-21T03:50:06.471Z,12.50
2019-05-21T03:52:35.241Z,12.50
2019-05-21T03:55:04.973Z,12.50
2019-05-21T03:57:33.627Z,12.50
2019-05-21T04:00:03.453Z,12.50
2019-05-21T04:02:32.060Z,12.50
2019-05-21T04:05:00.713Z,12.60
2019-05-21T04:07:29.368Z,12.70
2019-05-21T04:09:58.031Z,12.80
2019-05-21T04:12:26.641Z,12.90
2019-05-21T04:14:55.325Z,12.90
2019-05-21T04:17:23.991Z,12.90
2019-05-21T04:19:52.659Z,12.90
2019-05-21T04:22:21.335Z,12.90
2019-05-21T04:24:50.007Z,13.00
2019-05-21T04:27:18.789Z,13.00
2019-05-21T04:29:47.466Z,13.00
2019-05-21T04:32:16.154Z,13.10
2019-05-21T04:34:44.812Z,13.10
2019-05-21T04:37:17.382Z,13.10
2019-05-21T04:39:43.878Z,13.20
2019-05-21T04:42:12.609Z,13.30
2019-05-21T04:44:41.292Z,13.30
2019-05-21T04:47:10.022Z,13.30
2019-05-21T04:49:38.749Z,13.40
2019-05-21T04:52:07.414Z,13.40
2019-05-21T04:54:36.075Z,13.50
2019-05-21T04:57:04.680Z,13.50
2019-05-21T04:59:33.338Z,13.60
2019-05-21T05:02:01.949Z,13.70
2019-05-21T05:04:30.611Z,13.80
2019-05-21T05:06:59.298Z,13.80
2019-05-21T05:09:27.908Z,13.90
2019-05-21T05:11:56.577Z,14.00
2019-05-21T05:14:25.191Z,14.10
2019-05-21T05:16:53.849Z,14.20
2019-05-21T05:19:22.559Z,14.30
2019-05-21T05:21:51.196Z,14.30
2019-05-21T05:24:19.862Z,14.40
2019-05-21T05:26:48.469Z,14.40
2019-05-21T05:29:17.131Z,14.50
2019-05-21T05:31:45.740Z,14.60
2019-05-21T05:34:14.400Z,14.60
2019-05-21T05:36:43.123Z,14.70
2019-05-21T05:39:11.783Z,14.80
2019-05-21T05:41:40.504Z,14.90
2019-05-21T05:44:09.236Z,15.10
2019-05-21T05:46:37.895Z,15.10
2019-05-21T05:49:06.505Z,15.20
2019-05-21T05:51:35.168Z,15.30
2019-05-21T05:54:03.822Z,15.30
2019-05-21T05:56:32.434Z,15.40
2019-05-21T05:59:01.142Z,15.50
2019-05-21T06:01:29.947Z,15.60
2019-05-21T06:03:58.611Z,15.60
2019-05-21T06:06:27.229Z,15.80
2019-05-21T06:08:55.890Z,15.80
2019-05-21T06:11:24.503Z,15.90
2019-05-21T06:13:53.157Z,16.00
2019-05-21T06:16:21.772Z,16.10
2019-05-21T06:18:50.836Z,16.20
2019-05-21T06:21:19.449Z,16.30
2019-05-21T06:23:50.673Z,16.40
2019-05-21T06:26:21.296Z,16.50
2019-05-21T06:28:49.942Z,16.50
2019-05-21T06:31:19.414Z,16.60
2019-05-21T06:33:49.335Z,16.70
2019-05-21T06:36:18.144Z,16.80
2019-05-21T06:38:47.099Z,16.80
2019-05-21T06:41:15.869Z,16.90
2019-05-21T06:43:44.538Z,17.00
2019-05-21T06:46:13.200Z,17.10
2019-05-21T06:48:41.864Z,17.20
2019-05-21T06:51:10.528Z,17.30
2019-05-21T06:53:39.222Z,17.30
2019-05-21T06:56:08.033Z,17.30
2019-05-21T06:58:36.769Z,17.30
2019-05-21T07:01:05.543Z,17.30
2019-05-21T07:03:34.309Z,17.40
2019-05-21T07:06:02.992Z,17.50
2019-05-21T07:08:34.514Z,17.60
2019-05-21T07:11:02.196Z,17.70
2019-05-21T07:13:31.279Z,17.80
2019-05-21T07:16:00.062Z,17.70
2019-05-21T07:18:28.725Z,17.80
2019-05-21T07:20:57.335Z,17.90
2019-05-21T07:23:25.995Z,17.90
2019-05-21T07:25:54.604Z,18.00
2019-05-21T07:28:23.539Z,18.00
2019-05-21T07:30:52.213Z,18.10
2019-05-21T07:33:20.863Z,18.20
2019-05-21T07:35:49.520Z,18.20
2019-05-21T07:38:18.270Z,18.30
2019-05-21T07:40:46.946Z,18.40
2019-05-21T07:43:15.556Z,18.50
2019-05-21T07:45:44.327Z,18.50
2019-05-21T07:48:13.038Z,18.60
2019-05-21T07:50:41.703Z,18.70
2019-05-21T07:53:10.362Z,18.80
2019-05-21T07:55:39.057Z,18.80
2019-05-21T07:58:07.761Z,18.90
2019-05-21T08:00:36.383Z,18.90
2019-05-21T08:03:04.995Z,19.10
2019-05-21T08:05:33.653Z,19.10
2019-05-21T08:08:02.265Z,19.30
2019-05-21T08:10:30.978Z,19.50
2019-05-21T08:12:59.635Z,19.60
2019-05-21T08:15:28.651Z,19.70
2019-05-21T08:17:57.361Z,19.70
2019-05-21T08:20:26.827Z,19.90
2019-05-21T08:22:55.659Z,20.00
2019-05-21T08:25:24.322Z,20.00
2019-05-21T08:27:53.023Z,20.00
2019-05-21T08:30:21.909Z,20.00
2019-05-21T08:32:50.564Z,20.10
2019-05-21T08:35:19.220Z,20.20
2019-05-21T08:37:47.840Z,20.30
2019-05-21T08:40:16.742Z,20.50
2019-05-21T08:42:45.447Z,20.60
2019-05-21T08:45:15.311Z,20.60
2019-05-21T08:47:43.992Z,20.70
2019-05-21T08:50:14.222Z,20.90
2019-05-21T08:52:42.951Z,21.20
2019-05-21T08:55:11.854Z,21.10
2019-05-21T08:57:40.539Z,21.00
2019-05-21T09:00:13.319Z,21.00
2019-05-21T09:02:42.051Z,20.90
2019-05-21T09:05:11.121Z,21.10
2019-05-21T09:07:39.854Z,21.10
2019-05-21T09:10:09.286Z,21.10
2019-05-21T09:12:37.942Z,21.20
2019-05-21T09:15:08.377Z,21.30
2019-05-21T09:17:37.034Z,21.40
2019-05-21T09:20:09.227Z,21.40
2019-05-21T09:22:40.295Z,21.50
2019-05-21T09:25:09.822Z,21.40
2019-05-21T09:27:38.555Z,21.40
2019-05-21T09:30:08.980Z,21.30
2019-05-21T09:32:37.730Z,21.40
2019-05-21T09:35:07.656Z,21.40
2019-05-21T09:37:36.687Z,21.60
2019-05-21T09:40:08.918Z,21.80
2019-05-21T09:42:37.724Z,22.00
2019-05-21T09:45:09.548Z,22.00
2019-05-21T09:47:38.420Z,22.20
2019-05-21T09:50:08.300Z,22.20
2019-05-21T09:52:37.231Z,22.10
2019-05-21T09:55:06.601Z,22.10
2019-05-21T09:57:35.976Z,22.10
2019-05-21T10:00:09.319Z,22.30
2019-05-21T10:02:37.934Z,22.50
2019-05-21T10:05:07.234Z,22.80
2019-05-21T10:07:40.089Z,22.90
2019-05-21T10:10:08.036Z,23.00
2019-05-21T10:12:36.686Z,23.00
2019-05-21T10:15:08.718Z,23.20
2019-05-21T10:17:37.371Z,23.40
2019-05-21T10:20:07.113Z,23.40
2019-05-21T10:22:35.726Z,23.40
2019-05-21T10:25:05.602Z,23.50
2019-05-21T10:27:34.206Z,23.50
2019-05-21T10:30:03.601Z,23.50
2019-05-21T10:32:32.287Z,23.60
2019-05-21T10:35:02.146Z,23.70
2019-05-21T10:37:31.091Z,23.90
2019-05-21T10:39:59.775Z,23.80
2019-05-21T10:42:28.461Z,23.70
2019-05-21T10:44:57.303Z,23.70
2019-05-21T10:47:25.937Z,23.70
2019-05-21T10:49:54.597Z,23.80
2019-05-21T10:52:24.058Z,23.80
2019-05-21T10:54:52.724Z,23.80
2019-05-21T10:57:21.516Z,23.70
2019-05-21T10:59:50.197Z,23.60
2019-05-21T11:02:19.722Z,23.90
2019-05-21T11:04:48.452Z,23.80
2019-05-21T11:07:17.197Z,23.90
2019-05-21T11:09:45.855Z,23.80
2019-05-21T11:12:14.540Z,23.90
2019-05-21T11:14:43.329Z,24.00
2019-05-21T11:17:11.940Z,24.00
2019-05-21T11:19:41.075Z,24.00
2019-05-21T11:22:09.777Z,24.00
2019-05-21T11:24:38.584Z,23.80
2019-05-21T11:27:07.199Z,23.80
2019-05-21T11:29:35.851Z,24.00
2019-05-21T11:32:04.856Z,24.10
2019-05-21T11:34:33.473Z,24.20
2019-05-21T11:37:02.231Z,24.30
2019-05-21T11:39:30.968Z,24.20
2019-05-21T11:41:59.647Z,24.30
2019-05-21T11:44:28.483Z,24.00
2019-05-21T11:46:57.098Z,23.80
2019-05-21T11:49:25.761Z,24.10
2019-05-21T11:51:54.372Z,24.20
2019-05-21T11:54:23.026Z,24.20
2019-05-21T11:56:51.682Z,24.20
2019-05-21T11:59:20.395Z,24.40
2019-05-21T12:01:49.131Z,24.60
2019-05-21T12:04:17.831Z,24.90
2019-05-21T12:06:46.589Z,24.90
2019-05-21T12:09:15.319Z,25.10
2019-05-21T12:11:44.033Z,25.30
2019-05-21T12:14:12.707Z,25.40
2019-05-21T12:16:41.320Z,25.40
2019-05-21T12:19:09.939Z,25.30
2019-05-21T12:21:38.598Z,25.30
2019-05-21T12:24:07.264Z,25.20
2019-05-21T12:26:35.951Z,24.90
2019-05-21T12:29:04.756Z,24.80
2019-05-21T12:31:33.369Z,25.10
2019-05-21T12:34:02.038Z,25.00
2019-05-21T12:36:30.698Z,25.00
2019-05-21T12:39:13.113Z,25.30
2019-05-21T12:41:29.932Z,25.40
2019-05-21T12:43:58.590Z,25.50
2019-05-21T12:46:27.260Z,25.50
2019-05-21T12:48:55.976Z,25.60
2019-05-21T12:51:24.708Z,25.60
2019-05-21T12:53:53.323Z,25.60
2019-05-21T12:56:22.061Z,25.90
2019-05-21T12:58:50.707Z,26.20
2019-05-21T13:01:19.374Z,26.30
2019-05-21T13:03:48.111Z,26.30
2019-05-21T13:06:16.872Z,26.60
2019-05-21T13:08:45.522Z,26.60
2019-05-21T13:11:14.330Z,26.50
2019-05-21T13:13:42.977Z,26.40
2019-05-21T13:16:11.852Z,26.20
2019-05-21T13:18:40.514Z,26.10
2019-05-21T13:21:09.192Z,26.00
2019-05-21T13:23:37.926Z,25.90
2019-05-21T13:26:08.670Z,25.90
2019-05-21T13:28:37.194Z,25.80
2019-05-21T13:31:05.864Z,25.70
2019-05-21T13:33:34.480Z,25.70
2019-05-21T13:36:03.562Z,25.80
2019-05-21T13:38:32.303Z,25.90
2019-05-21T13:41:00.920Z,28.80
2019-05-21T13:43:29.628Z,31.40
2019-05-21T13:45:58.238Z,33.40
2019-05-21T13:48:26.906Z,34.70
2019-05-21T13:50:55.525Z,34.80
2019-05-21T13:53:24.180Z,35.40
2019-05-21T13:55:52.798Z,36.70
2019-05-21T13:58:21.526Z,37.30
2019-05-21T14:00:50.213Z,38.20
2019-05-21T14:03:19.048Z,38.40
2019-05-21T14:05:47.978Z,39.20
2019-05-21T14:08:16.791Z,39.00
2019-05-21T14:10:46.057Z,39.50
2019-05-21T14:13:15.058Z,39.90
2019-05-21T14:15:43.881Z,39.90
2019-05-21T14:18:12.615Z,38.10
2019-05-21T14:20:41.230Z,35.30
2019-05-21T14:23:09.966Z,34.30
2019-05-21T14:25:38.572Z,33.40
2019-05-21T14:28:08.102Z,32.50
2019-05-21T14:30:36.936Z,31.30
2019-05-21T14:33:05.601Z,31.10
2019-05-21T14:35:34.260Z,31.00
2019-05-21T14:38:02.876Z,31.10
2019-05-21T14:40:32.899Z,31.00
2019-05-21T14:43:01.672Z,30.80
2019-05-21T14:45:33.921Z,30.20
2019-05-21T14:48:01.513Z,30.10
2019-05-21T14:50:30.188Z,30.00
2019-05-21T14:52:58.810Z,29.90
2019-05-21T14:55:27.428Z,29.30
2019-05-21T14:57:58.845Z,29.00
2019-05-21T15:00:27.692Z,29.00
2019-05-21T15:02:56.306Z,30.00
2019-05-21T15:05:25.606Z,32.40
2019-05-21T15:07:54.233Z,34.00
2019-05-21T15:10:22.889Z,35.30
2019-05-21T15:12:51.542Z,36.00
2019-05-21T15:15:20.280Z,36.10
2019-05-21T15:17:49.458Z,36.80
2019-05-21T15:20:18.833Z,37.70
2019-05-21T15:22:47.451Z,36.50
2019-05-21T15:25:16.114Z,36.00
2019-05-21T15:27:44.733Z,35.40
2019-05-21T15:30:14.901Z,34.70
2019-05-21T15:32:43.513Z,34.40
2019-05-21T15:35:12.306Z,33.70
2019-05-21T15:37:44.842Z,33.30
2019-05-21T15:40:12.156Z,32.80
2019-05-21T15:42:40.822Z,32.30
2019-05-21T15:45:10.142Z,31.70
2019-05-21T15:47:38.839Z,31.10
2019-05-21T15:50:08.041Z,30.80
2019-05-21T15:52:36.707Z,30.80
2019-05-21T15:55:07.470Z,30.80
2019-05-21T15:57:36.364Z,30.50
2019-05-21T16:00:11.090Z,30.30
2019-05-21T16:02:40.015Z,30.20
2019-05-21T16:05:09.272Z,30.10
2019-05-21T16:07:37.934Z,30.00
2019-05-21T16:10:08.164Z,29.90
2019-05-21T16:12:36.828Z,30.30
2019-05-21T16:15:08.473Z,30.20
2019-05-21T16:17:37.134Z,29.70
2019-05-21T16:20:08.187Z,30.50
2019-05-21T16:22:36.844Z,30.10
2019-05-21T16:25:06.968Z,30.30
2019-05-21T16:27:35.682Z,30.20
2019-05-21T16:30:08.012Z,29.90
2019-05-21T16:32:36.670Z,29.80
2019-05-21T16:35:09.338Z,29.50
2019-05-21T16:37:37.326Z,29.00
2019-05-21T16:40:07.883Z,28.50
2019-05-21T16:42:36.545Z,28.20
2019-05-21T16:45:09.925Z,28.40
2019-05-21T16:47:45.896Z,29.50
2019-05-21T16:50:09.887Z,29.80
2019-05-21T16:52:38.964Z,29.30
2019-05-21T16:55:08.230Z,29.20
2019-05-21T16:57:36.964Z,29.00
2019-05-21T17:00:07.701Z,28.90
2019-05-21T17:02:36.439Z,28.60
2019-05-21T17:05:08.519Z,28.60
2019-05-21T17:07:38.004Z,28.50
2019-05-21T17:10:08.880Z,28.20
2019-05-21T17:12:37.578Z,28.60
2019-05-21T17:15:08.166Z,28.60
2019-05-21T17:17:36.772Z,28.70
2019-05-21T17:20:09.348Z,28.40
2019-05-21T17:22:38.026Z,28.30
2019-05-21T17:25:08.574Z,28.00
2019-05-21T17:27:37.374Z,27.30
2019-05-21T17:30:09.223Z,26.70
2019-05-21T17:32:38.074Z,26.20
2019-05-21T17:35:08.152Z,26.00
2019-05-21T17:37:36.986Z,25.30
2019-05-21T17:40:07.389Z,24.70
2019-05-21T17:42:36.206Z,24.20
2019-05-21T17:45:08.526Z,23.70
2019-05-21T17:47:37.165Z,22.50
2019-05-21T17:50:07.331Z,21.70
2019-05-21T17:52:35.973Z,21.60
2019-05-21T17:55:06.131Z,21.80
2019-05-21T17:57:34.909Z,22.20
2019-05-21T18:00:08.327Z,22.50
2019-05-21T18:02:36.959Z,22.40
2019-05-21T18:05:07.408Z,22.60
2019-05-21T18:07:36.340Z,22.30
2019-05-21T18:10:07.594Z,22.30
2019-05-21T18:12:36.275Z,22.40
2019-05-21T18:15:08.023Z,21.30
2019-05-21T18:17:36.803Z,20.80
2019-05-21T18:20:08.856Z,20.90
2019-05-21T18:22:38.721Z,20.70
2019-05-21T18:25:07.795Z,21.10
2019-05-21T18:27:36.482Z,21.30
2019-05-21T18:30:07.057Z,21.50
2019-05-21T18:32:35.675Z,21.40
2019-05-21T18:35:08.053Z,21.40
2019-05-21T18:37:38.106Z,21.50
2019-05-21T18:40:11.290Z,21.50
2019-05-21T18:42:39.986Z,21.50
2019-05-21T18:45:10.216Z,21.40
2019-05-21T18:47:38.829Z,21.30
2019-05-21T18:50:09.199Z,21.10
2019-05-21T18:52:37.896Z,20.90
2019-05-21T18:55:07.067Z,20.90
2019-05-21T18:57:35.867Z,21.00
2019-05-21T19:00:08.269Z,21.00
2019-05-21T19:02:36.951Z,20.80
2019-05-21T19:05:06.822Z,20.80
2019-05-21T19:07:35.713Z,20.60
2019-05-21T19:10:08.686Z,20.60
2019-05-21T19:12:38.852Z,20.40
2019-05-21T19:15:08.771Z,20.50
2019-05-21T19:17:37.388Z,20.10
2019-05-21T19:20:08.327Z,20.10
2019-05-21T19:22:37.186Z,19.90
2019-05-21T19:25:08.267Z,19.90
2019-05-21T19:27:37.086Z,20.00
2019-05-21T19:30:07.377Z,19.90
2019-05-21T19:32:36.150Z,19.90
2019-05-21T19:35:06.525Z,19.80
2019-05-21T19:37:35.273Z,19.70
2019-05-21T19:40:05.638Z,19.60
2019-05-21T19:42:34.274Z,19.60
2019-05-21T19:45:05.328Z,19.70
2019-05-21T19:47:33.981Z,19.80
2019-05-21T19:50:04.161Z,19.80
2019-05-21T19:52:32.836Z,19.70
2019-05-21T19:55:01.449Z,19.70
2019-05-21T19:57:30.110Z,19.70
2019-05-21T19:59:58.793Z,19.70
2019-05-21T20:02:27.899Z,19.80
2019-05-21T20:04:56.753Z,19.80
2019-05-21T20:07:25.844Z,19.80
2019-05-21T20:09:54.698Z,19.80
2019-05-21T20:12:23.440Z,19.80
2019-05-21T20:14:52.052Z,19.60
2019-05-21T20:17:20.721Z,19.70
2019-05-21T20:19:50.781Z,19.70
2019-05-21T20:22:19.500Z,19.70
2019-05-21T20:24:48.116Z,19.60
2019-05-21T20:27:17.151Z,19.50
2019-05-21T20:29:45.873Z,19.60
2019-05-21T20:32:14.554Z,19.60
2019-05-21T20:34:43.685Z,19.60
2019-05-21T20:37:13.536Z,19.50
2019-05-21T20:39:42.844Z,19.40
2019-05-21T20:42:11.625Z,19.30
2019-05-21T20:44:40.281Z,19.20
2019-05-21T20:47:08.899Z,19.00
2019-05-21T20:49:38.197Z,19.00
2019-05-21T20:52:18.259Z,18.80
2019-05-21T20:54:38.053Z,18.80
2019-05-21T20:57:06.664Z,18.70
2019-05-21T20:59:35.394Z,18.70
2019-05-21T21:02:08.119Z,18.70
2019-05-21T21:04:34.741Z,18.60
2019-05-21T21:07:03.547Z,18.60
2019-05-21T21:09:32.727Z,18.40
2019-05-21T21:12:01.409Z,18.40
2019-05-21T21:14:30.308Z,18.40
2019-05-21T21:16:58.922Z,18.30
2019-05-21T21:19:28.066Z,18.40
2019-05-21T21:21:56.689Z,18.40
2019-05-21T21:24:25.805Z,18.50
2019-05-21T21:26:54.638Z,18.40
2019-05-21T21:29:23.332Z,18.50
2019-05-21T21:31:52.062Z,18.50
2019-05-21T21:34:20.994Z,18.40
2019-05-21T21:36:53.135Z,18.40
2019-05-21T21:39:20.170Z,18.30
2019-05-21T21:41:48.785Z,18.20
2019-05-21T21:44:31.594Z,18.30
2019-05-21T21:46:47.946Z,18.20
2019-05-21T21:49:17.340Z,18.10
2019-05-21T21:51:45.949Z,18.20
2019-05-21T21:54:14.623Z,18.10
2019-05-21T21:56:43.532Z,17.90
2019-05-21T21:59:12.296Z,18.00
2019-05-21T22:01:57.179Z,18.00
2019-05-21T22:04:29.351Z,18.00
2019-05-21T22:06:58.698Z,18.10
2019-05-21T22:09:28.804Z,18.00
2019-05-21T22:11:57.753Z,18.00
2019-05-21T22:14:26.788Z,18.00
2019-05-21T22:16:55.410Z,17.90
2019-05-21T22:19:24.313Z,17.80
2019-05-21T22:21:53.184Z,17.70
2019-05-21T22:24:22.019Z,17.70
2019-05-21T22:26:51.081Z,17.70
2019-05-21T22:29:20.432Z,17.70
2019-05-21T22:31:49.349Z,17.70
2019-05-21T22:34:18.251Z,17.70
2019-05-21T22:36:46.933Z,17.70
2019-05-21T22:39:15.558Z,17.70
2019-05-21T22:41:44.223Z,17.50
2019-05-21T22:44:13.405Z,17.60
2019-05-21T22:46:42.109Z,17.60
2019-05-21T22:49:11.394Z,17.60
2019-05-21T22:51:40.121Z,17.60
2019-05-21T22:54:08.884Z,17.50
2019-05-21T22:56:37.564Z,17.60
2019-05-21T22:59:06.232Z,17.50
2019-05-21T23:01:35.268Z,17.40
2019-05-21T23:04:03.930Z,17.40
2019-05-21T23:06:32.710Z,17.30
2019-05-21T23:09:01.930Z,17.30
2019-05-21T23:11:30.543Z,17.30
2019-05-21T23:13:59.226Z,17.20
2019-05-21T23:16:28.058Z,17.10
2019-05-21T23:18:57.041Z,17.30
2019-05-21T23:21:25.706Z,17.30
2019-05-21T23:23:54.738Z,17.30
2019-05-21T23:26:23.575Z,17.10
2019-05-21T23:28:52.196Z,17.20
2019-05-21T23:31:20.921Z,17.20
2019-05-21T23:33:49.544Z,17.20
2019-05-21T23:36:18.735Z,17.10
2019-05-21T23:38:47.355Z,17.10
2019-05-21T23:41:17.153Z,17.20
2019-05-21T23:43:45.770Z,17.10
2019-05-21T23:46:14.611Z,17.20
2019-05-21T23:48:44.014Z,17.10
2019-05-21T23:51:12.729Z,17.10
2019-05-21T23:53:41.457Z,17.00
2019-05-21T23:56:10.317Z,17.00
2019-05-21T23:58:39.049Z,17.10
